createdAt,value
2023-02-19T00:00:47.280Z,101511.94
2023-02-19T00:01:41.707Z,101522.31
2023-02-19T00:02:33.414Z,101513.66
2023-02-19T00:03:24.871Z,101511.09
2023-02-19T00:04:19.819Z,101511.06
2023-02-19T00:05:11.245Z,101504.22
2023-02-19T00:06:05.214Z,101501.53
2023-02-19T00:06:56.646Z,101506.63
2023-02-19T00:07:48.213Z,101505.56
2023-02-19T00:08:40.040Z,101505.88
2023-02-19T00:09:31.728Z,101492.88
2023-02-19T00:10:23.407Z,101502.47
2023-02-19T00:11:21.034Z,101499.88
2023-02-19T00:12:12.622Z,101502.19
2023-02-19T00:13:04.275Z,101500.47
2023-02-19T00:13:58.035Z,101496.19
2023-02-19T00:14:49.784Z,101495.19
2023-02-19T00:15:41.241Z,101500.56
2023-02-19T00:16:38.374Z,101495.41
2023-02-19T00:17:31.244Z,101498.78
2023-02-19T00:18:24.112Z,101490.41
2023-02-19T00:19:18.458Z,101489.38
2023-02-19T00:20:10.418Z,101489.16
2023-02-19T00:21:03.997Z,101478.78
2023-02-19T00:21:55.489Z,101480.63
2023-02-19T00:22:46.908Z,101486.59
2023-02-19T00:23:39.222Z,101483.94
2023-02-19T00:24:30.899Z,101481.53
2023-02-19T00:25:22.576Z,101487.47
2023-02-19T00:26:18.455Z,101478.84
2023-02-19T00:27:10.452Z,101485.66
2023-02-19T00:28:01.952Z,101488.22
2023-02-19T00:28:55.588Z,101489.25
2023-02-19T00:29:47.037Z,101488.31
2023-02-19T00:30:38.707Z,101483.88
2023-02-19T00:31:33.586Z,101483.97
2023-02-19T00:32:25.187Z,101491.78
2023-02-19T00:33:16.927Z,101496.75
2023-02-19T00:34:11.117Z,101488.81
2023-02-19T00:35:02.708Z,101491.31
2023-02-19T00:35:54.367Z,101494.78
2023-02-19T00:36:47.193Z,101489.56
2023-02-19T00:37:38.599Z,101487.81
2023-02-19T00:38:30.548Z,101495.78
2023-02-19T00:39:22.012Z,101480.13
2023-02-19T00:40:13.579Z,101476.66
2023-02-19T00:41:18.949Z,101479.19
2023-02-19T00:42:10.731Z,101488.75
2023-02-19T00:43:02.355Z,101482.69
2023-02-19T00:44:00.074Z,101479.28
2023-02-19T00:44:51.572Z,101475.75
2023-02-19T00:45:45.400Z,101476.69
2023-02-19T00:46:43.396Z,101482.00
2023-02-19T00:47:35.011Z,101474.28
2023-02-19T00:48:26.400Z,101480.34
2023-02-19T00:49:21.381Z,101478.69
2023-02-19T00:50:12.913Z,101479.75
2023-02-19T00:51:04.877Z,101472.81
2023-02-19T00:51:56.581Z,101479.78
2023-02-19T00:52:48.343Z,101475.50
2023-02-19T00:53:40.535Z,101471.34
2023-02-19T00:54:32.312Z,101472.94
2023-02-19T00:55:24.086Z,101477.25
2023-02-19T00:56:16.259Z,101472.16
2023-02-19T00:57:07.956Z,101474.69
2023-02-19T00:57:59.407Z,101470.97
2023-02-19T00:58:51.715Z,101478.03
2023-02-19T00:59:43.216Z,101472.78
2023-02-19T01:00:34.667Z,101469.19
2023-02-19T01:01:27.247Z,101463.91
2023-02-19T01:02:18.885Z,101468.16
2023-02-19T01:03:10.671Z,101471.78
2023-02-19T01:04:02.149Z,101466.69
2023-02-19T01:04:53.925Z,101472.81
2023-02-19T01:05:45.548Z,101471.13
2023-02-19T01:06:37.078Z,101466.03
2023-02-19T01:07:28.628Z,101469.34
2023-02-19T01:08:20.463Z,101472.06
2023-02-19T01:09:12.158Z,101468.63
2023-02-19T01:10:04.748Z,101470.41
2023-02-19T01:10:57.276Z,101471.47
2023-02-19T01:11:48.849Z,101469.59
2023-02-19T01:12:40.277Z,101478.25
2023-02-19T01:13:32.979Z,101467.94
2023-02-19T01:14:24.469Z,101467.00
2023-02-19T01:15:15.979Z,101463.44
2023-02-19T01:16:13.490Z,101468.56
2023-02-19T01:17:05.908Z,101466.03
2023-02-19T01:17:57.363Z,101466.97
2023-02-19T01:18:51.268Z,101468.63
2023-02-19T01:19:43.112Z,101467.06
2023-02-19T01:20:34.612Z,101466.34
2023-02-19T01:21:27.978Z,101466.25
2023-02-19T01:22:19.539Z,101468.78
2023-02-19T01:23:12.851Z,101474.91
2023-02-19T01:24:04.616Z,101470.66
2023-02-19T01:24:56.065Z,101468.84
2023-02-19T01:25:47.774Z,101464.41
2023-02-19T01:26:40.578Z,101466.97
2023-02-19T01:27:32.088Z,101458.38
2023-02-19T01:28:23.652Z,101463.75
2023-02-19T01:29:15.234Z,101463.84
2023-02-19T01:30:07.267Z,101461.09
2023-02-19T01:31:08.386Z,101465.53
2023-02-19T01:32:00.169Z,101460.16
2023-02-19T01:32:51.716Z,101455.78
2023-02-19T01:33:54.348Z,101457.66
2023-02-19T01:34:45.902Z,101465.41
2023-02-19T01:35:40.776Z,101451.56
2023-02-19T01:36:34.321Z,101461.03
2023-02-19T01:37:25.865Z,101463.56
2023-02-19T01:38:17.360Z,101464.41
2023-02-19T01:39:10.963Z,101466.25
2023-02-19T01:40:02.452Z,101460.44
2023-02-19T01:40:59.441Z,101464.81
2023-02-19T01:41:50.945Z,101455.38
2023-02-19T01:42:44.428Z,101454.44
2023-02-19T01:43:58.444Z,101461.34
2023-02-19T01:45:23.909Z,101451.78
2023-02-19T01:46:15.333Z,101449.75
2023-02-19T01:47:06.852Z,101453.28
2023-02-19T01:48:17.396Z,101455.00
2023-02-19T01:49:18.549Z,101451.63
2023-02-19T01:50:10.553Z,101452.63
2023-02-19T01:51:14.892Z,101454.56
2023-02-19T01:52:26.051Z,101453.59
2023-02-19T01:53:24.009Z,101450.13
2023-02-19T01:54:20.307Z,101449.56
2023-02-19T01:55:13.966Z,101447.63
2023-02-19T01:56:08.866Z,101442.22
2023-02-19T01:57:07.338Z,101458.94
2023-02-19T01:58:00.222Z,101439.91
2023-02-19T01:58:53.295Z,101444.19
2023-02-19T01:59:49.948Z,101450.53
2023-02-19T02:00:41.503Z,101447.78
2023-02-19T02:01:33.316Z,101445.19
2023-02-19T02:02:27.287Z,101449.56
2023-02-19T02:03:19.851Z,101450.44
2023-02-19T02:04:14.765Z,101445.84
2023-02-19T02:05:17.870Z,101447.63
2023-02-19T02:06:21.557Z,101445.34
2023-02-19T02:07:32.060Z,101443.53
2023-02-19T02:08:45.411Z,101448.72
2023-02-19T02:09:55.448Z,101444.47
2023-02-19T02:10:46.938Z,101449.56
2023-02-19T02:11:44.174Z,101445.19
2023-02-19T02:12:35.612Z,101443.53
2023-02-19T02:13:27.823Z,101446.28
2023-02-19T02:14:26.087Z,101456.66
2023-02-19T02:15:19.137Z,101444.50
2023-02-19T02:16:25.013Z,101447.38
2023-02-19T02:17:31.260Z,101445.59
2023-02-19T02:18:39.089Z,101450.59
2023-02-19T02:19:54.644Z,101451.34
2023-02-19T02:21:21.491Z,101447.28
2023-02-19T02:22:29.511Z,101448.03
2023-02-19T02:23:40.972Z,101453.25
2023-02-19T02:25:02.488Z,101448.84
2023-02-19T02:25:59.575Z,101445.34
2023-02-19T02:27:15.561Z,101455.75
2023-02-19T02:28:18.251Z,101452.16
2023-02-19T02:29:51.948Z,101442.59
2023-02-19T02:30:53.291Z,101451.28
2023-02-19T02:32:01.722Z,101447.78
2023-02-19T02:33:11.291Z,101445.94
2023-02-19T02:34:17.632Z,101437.16
2023-02-19T02:35:13.448Z,101452.75
2023-02-19T02:36:14.564Z,101445.84
2023-02-19T02:37:09.675Z,101445.84
2023-02-19T02:38:08.211Z,101441.56
2023-02-19T02:39:05.051Z,101438.81
2023-02-19T02:40:00.425Z,101442.31
2023-02-19T02:40:53.116Z,101446.69
2023-02-19T02:42:15.611Z,101440.59
2023-02-19T02:43:13.365Z,101447.47
2023-02-19T02:44:04.943Z,101436.22
2023-02-19T02:45:37.886Z,101449.28
2023-02-19T02:46:40.829Z,101439.63
2023-02-19T02:47:42.902Z,101444.66
2023-02-19T02:49:00.512Z,101446.47
2023-02-19T02:50:05.121Z,101442.16
2023-02-19T02:51:19.995Z,101428.41
2023-02-19T02:52:54.802Z,101437.06
2023-02-19T02:54:32.113Z,101442.44
2023-02-19T02:55:30.983Z,101433.50
2023-02-19T02:56:25.914Z,101439.41
2023-02-19T02:57:19.403Z,101442.97
2023-02-19T02:58:17.169Z,101435.19
2023-02-19T02:59:14.809Z,101448.88
2023-02-19T03:00:07.043Z,101438.56
2023-02-19T03:01:25.961Z,101440.28
2023-02-19T03:02:26.419Z,101432.56
2023-02-19T03:03:23.249Z,101437.88
2023-02-19T03:04:26.880Z,101438.88
2023-02-19T03:05:44.753Z,101446.38
2023-02-19T03:06:38.454Z,101439.53
2023-02-19T03:07:39.016Z,101445.47
2023-02-19T03:08:38.299Z,101446.41
2023-02-19T03:09:40.607Z,101454.31
2023-02-19T03:11:24.283Z,101447.31
2023-02-19T03:12:39.660Z,101455.16
2023-02-19T03:14:10.423Z,101455.25
2023-02-19T03:15:32.627Z,101448.28
2023-02-19T03:16:50.424Z,101458.88
2023-02-19T03:18:08.032Z,101454.31
2023-02-19T03:19:19.506Z,101453.28
2023-02-19T03:20:17.697Z,101462.81
2023-02-19T03:21:10.208Z,101451.72
2023-02-19T03:22:20.135Z,101449.94
2023-02-19T03:23:15.925Z,101458.66
2023-02-19T03:24:31.229Z,101468.22
2023-02-19T03:25:47.168Z,101458.88
2023-02-19T03:26:45.698Z,101465.63
2023-02-19T03:27:43.747Z,101458.75
2023-02-19T03:29:00.416Z,101465.66
2023-02-19T03:29:58.354Z,101469.16
2023-02-19T03:30:55.177Z,101463.97
2023-02-19T03:31:52.592Z,101461.25
2023-02-19T03:32:51.995Z,101463.03
2023-02-19T03:33:49.883Z,101469.81
2023-02-19T03:34:51.625Z,101468.94
2023-02-19T03:36:04.317Z,101468.22
2023-02-19T03:37:09.202Z,101462.28
2023-02-19T03:38:10.870Z,101467.44
2023-02-19T03:39:08.288Z,101457.38
2023-02-19T03:40:02.042Z,101468.25
2023-02-19T03:41:17.367Z,101462.13
2023-02-19T03:42:33.694Z,101471.66
2023-02-19T03:43:54.180Z,101474.56
2023-02-19T03:44:49.011Z,101472.78
2023-02-19T03:46:10.614Z,101473.63
2023-02-19T03:47:17.136Z,101467.56
2023-02-19T03:48:20.693Z,101471.69
2023-02-19T03:49:49.291Z,101478.44
2023-02-19T03:51:04.623Z,101484.66
2023-02-19T03:52:16.899Z,101490.84
2023-02-19T03:53:46.562Z,101490.97
2023-02-19T03:55:03.317Z,101494.44
2023-02-19T03:56:07.966Z,101492.50
2023-02-19T03:57:21.528Z,101487.16
2023-02-19T03:58:32.369Z,101488.09
2023-02-19T04:00:03.906Z,101485.72
2023-02-19T04:01:10.953Z,101485.59
2023-02-19T04:02:22.655Z,101491.75
2023-02-19T04:03:32.622Z,101500.41
2023-02-19T04:04:38.667Z,101496.00
2023-02-19T04:05:35.925Z,101495.06
2023-02-19T04:06:31.886Z,101496.75
2023-02-19T04:07:26.777Z,101492.34
2023-02-19T04:08:23.465Z,101502.88
2023-02-19T04:09:24.992Z,101499.53
2023-02-19T04:10:26.374Z,101502.91
2023-02-19T04:11:22.327Z,101500.19
2023-02-19T04:12:19.232Z,101504.34
2023-02-19T04:13:19.924Z,101504.34
2023-02-19T04:14:30.778Z,101511.28
2023-02-19T04:15:30.771Z,101513.09
2023-02-19T04:16:28.887Z,101511.41
2023-02-19T04:17:28.091Z,101510.66
2023-02-19T04:18:26.285Z,101514.25
2023-02-19T04:19:24.669Z,101513.28
2023-02-19T04:20:20.310Z,101515.03
2023-02-19T04:21:14.226Z,101519.34
2023-02-19T04:22:09.597Z,101512.34
2023-02-19T04:23:01.257Z,101519.22
2023-02-19T04:23:52.704Z,101516.53
2023-02-19T04:24:50.747Z,101515.66
2023-02-19T04:25:46.802Z,101515.66
2023-02-19T04:26:39.989Z,101525.34
2023-02-19T04:27:32.694Z,101519.91
2023-02-19T04:28:24.409Z,101515.31
2023-02-19T04:29:15.852Z,101518.88
2023-02-19T04:30:09.177Z,101525.72
2023-02-19T04:31:01.771Z,101527.13
2023-02-19T04:31:53.224Z,101526.91
2023-02-19T04:32:44.835Z,101529.34
2023-02-19T04:33:37.335Z,101527.50
2023-02-19T04:34:28.763Z,101537.88
2023-02-19T04:35:20.291Z,101534.19
2023-02-19T04:36:12.149Z,101534.91
2023-02-19T04:37:03.781Z,101533.13
2023-02-19T04:37:55.209Z,101536.75
2023-02-19T04:38:46.617Z,101535.00
2023-02-19T04:39:38.221Z,101544.41
2023-02-19T04:40:29.781Z,101533.09
2023-02-19T04:41:21.417Z,101541.00
2023-02-19T04:42:12.862Z,101540.88
2023-02-19T04:43:04.345Z,101543.53
2023-02-19T04:43:55.739Z,101537.59
2023-02-19T04:44:47.297Z,101546.22
2023-02-19T04:45:39.444Z,101533.25
2023-02-19T04:46:31.009Z,101558.34
2023-02-19T04:47:22.638Z,101550.56
2023-02-19T04:48:15.086Z,101545.19
2023-02-19T04:49:06.511Z,101548.56
2023-02-19T04:49:57.914Z,101552.84
2023-02-19T04:50:49.444Z,101552.81
2023-02-19T04:51:41.318Z,101554.59
2023-02-19T04:52:33.272Z,101547.31
2023-02-19T04:53:24.818Z,101558.41
2023-02-19T04:54:16.223Z,101551.25
2023-02-19T04:55:09.136Z,101559.16
2023-02-19T04:56:09.098Z,101549.72
2023-02-19T04:57:00.706Z,101547.81
2023-02-19T04:57:52.213Z,101555.69
2023-02-19T04:58:45.375Z,101561.63
2023-02-19T04:59:36.946Z,101559.81
2023-02-19T05:00:28.359Z,101558.88
2023-02-19T05:01:20.538Z,101550.19
2023-02-19T05:02:11.995Z,101557.94
2023-02-19T05:03:03.610Z,101554.44
2023-02-19T05:03:55.028Z,101556.91
2023-02-19T05:04:46.486Z,101553.59
2023-02-19T05:05:37.906Z,101558.78
2023-02-19T05:06:29.368Z,101555.25
2023-02-19T05:07:21.464Z,101563.88
2023-02-19T05:08:13.174Z,101563.16
2023-02-19T05:09:04.581Z,101565.88
2023-02-19T05:09:56.056Z,101565.66
2023-02-19T05:10:47.557Z,101572.59
2023-02-19T05:11:38.973Z,101569.06
2023-02-19T05:12:31.111Z,101573.44
2023-02-19T05:13:22.536Z,101575.78
2023-02-19T05:14:13.954Z,101571.41
2023-02-19T05:15:05.501Z,101570.59
2023-02-19T05:15:59.648Z,101575.75
2023-02-19T05:16:51.162Z,101564.38
2023-02-19T05:17:42.593Z,101579.09
2023-02-19T05:18:34.609Z,101573.81
2023-02-19T05:19:26.083Z,101579.78
2023-02-19T05:20:17.628Z,101577.19
2023-02-19T05:21:10.705Z,101574.72
2023-02-19T05:22:02.364Z,101579.91
2023-02-19T05:22:53.784Z,101584.28
2023-02-19T05:23:45.447Z,101584.09
2023-02-19T05:24:36.851Z,101585.81
2023-02-19T05:25:28.311Z,101585.81
2023-02-19T05:26:24.050Z,101589.16
2023-02-19T05:27:15.502Z,101584.88
2023-02-19T05:28:18.814Z,101582.38
2023-02-19T05:29:10.267Z,101582.13
2023-02-19T05:30:01.827Z,101588.16
2023-02-19T05:30:56.478Z,101587.09
2023-02-19T05:31:49.075Z,101579.22
2023-02-19T05:32:40.767Z,101586.06
2023-02-19T05:33:32.683Z,101591.50
2023-02-19T05:34:24.474Z,101589.69
2023-02-19T05:35:16.345Z,101597.38
2023-02-19T05:36:11.542Z,101584.38
2023-02-19T05:37:03.167Z,101597.34
2023-02-19T05:37:54.617Z,101592.97
2023-02-19T05:38:47.339Z,101596.53
2023-02-19T05:39:38.868Z,101600.94
2023-02-19T05:40:30.412Z,101604.34
2023-02-19T05:41:30.012Z,101602.72
2023-02-19T05:42:21.416Z,101607.91
2023-02-19T05:43:14.236Z,101614.94
2023-02-19T05:44:05.919Z,101615.69
2023-02-19T05:44:57.602Z,101611.41
2023-02-19T05:45:49.196Z,101614.03
2023-02-19T05:46:40.606Z,101622.03
2023-02-19T05:47:32.052Z,101614.25
2023-02-19T05:48:23.543Z,101614.94
2023-02-19T05:49:15.096Z,101619.38
2023-02-19T05:50:06.695Z,101622.09
2023-02-19T05:51:06.755Z,101623.88
2023-02-19T05:51:58.149Z,101626.47
2023-02-19T05:52:49.687Z,101629.31
2023-02-19T05:53:43.114Z,101622.34
2023-02-19T05:54:34.823Z,101630.09
2023-02-19T05:55:27.021Z,101638.63
2023-02-19T05:56:25.970Z,101635.28
2023-02-19T05:57:17.361Z,101629.50
2023-02-19T05:58:08.887Z,101638.22
2023-02-19T05:59:04.140Z,101627.81
2023-02-19T05:59:56.726Z,101627.75
2023-02-19T06:00:48.304Z,101637.31
2023-02-19T06:01:40.081Z,101640.81
2023-02-19T06:02:31.565Z,101642.69
2023-02-19T06:03:23.617Z,101639.03
2023-02-19T06:04:16.037Z,101641.78
2023-02-19T06:05:08.439Z,101640.84
2023-02-19T06:05:59.881Z,101641.53
2023-02-19T06:06:51.411Z,101642.38
2023-02-19T06:07:43.176Z,101652.88
2023-02-19T06:08:34.615Z,101650.25
2023-02-19T06:09:26.301Z,101646.66
2023-02-19T06:10:18.052Z,101644.75
2023-02-19T06:11:10.730Z,101640.47
2023-02-19T06:12:02.343Z,101636.81
2023-02-19T06:12:54.394Z,101639.53
2023-02-19T06:13:47.503Z,101635.19
2023-02-19T06:14:38.907Z,101642.00
2023-02-19T06:15:30.321Z,101644.50
2023-02-19T06:16:22.283Z,101646.16
2023-02-19T06:17:13.801Z,101641.78
2023-02-19T06:18:05.442Z,101646.09
2023-02-19T06:18:57.035Z,101645.34
2023-02-19T06:19:48.502Z,101642.00
2023-02-19T06:20:39.971Z,101641.91
2023-02-19T06:21:31.724Z,101644.34
2023-02-19T06:22:23.198Z,101643.50
2023-02-19T06:23:15.486Z,101655.53
2023-02-19T06:24:10.315Z,101650.41
2023-02-19T06:25:02.569Z,101656.63
2023-02-19T06:25:54.406Z,101653.19
2023-02-19T06:26:46.604Z,101654.06
2023-02-19T06:27:39.347Z,101660.03
2023-02-19T06:28:30.752Z,101661.16
2023-02-19T06:29:22.316Z,101659.38
2023-02-19T06:30:13.947Z,101658.56
2023-02-19T06:31:07.840Z,101655.84
2023-02-19T06:32:01.150Z,101658.66
2023-02-19T06:32:54.563Z,101655.34
2023-02-19T06:33:46.743Z,101659.53
2023-02-19T06:34:38.232Z,101657.88
2023-02-19T06:35:29.620Z,101656.75
2023-02-19T06:36:22.314Z,101657.50
2023-02-19T06:37:13.828Z,101660.03
2023-02-19T06:38:05.428Z,101661.94
2023-02-19T06:39:00.095Z,101660.91
2023-02-19T06:39:51.499Z,101659.84
2023-02-19T06:40:42.937Z,101665.03
2023-02-19T06:41:34.365Z,101664.06
2023-02-19T06:42:25.791Z,101668.44
2023-02-19T06:43:17.778Z,101669.34
2023-02-19T06:44:09.863Z,101660.66
2023-02-19T06:45:01.270Z,101665.94
2023-02-19T06:45:53.508Z,101667.63
2023-02-19T06:46:45.267Z,101670.91
2023-02-19T06:47:36.715Z,101668.41
2023-02-19T06:48:30.322Z,101676.19
2023-02-19T06:49:22.212Z,101672.81
2023-02-19T06:50:13.808Z,101672.78
2023-02-19T06:51:05.573Z,101679.78
2023-02-19T06:51:57.117Z,101673.78
2023-02-19T06:52:48.523Z,101680.13
2023-02-19T06:53:40.184Z,101674.84
2023-02-19T06:54:33.489Z,101677.56
2023-02-19T06:55:25.039Z,101679.34
2023-02-19T06:56:29.042Z,101679.31
2023-02-19T06:57:20.716Z,101674.94
2023-02-19T06:58:12.200Z,101681.00
2023-02-19T06:59:07.041Z,101686.25
2023-02-19T06:59:58.504Z,101685.38
2023-02-19T07:00:49.980Z,101676.63
2023-02-19T07:01:41.653Z,101679.31
2023-02-19T07:02:33.112Z,101688.72
2023-02-19T07:03:26.225Z,101682.72
2023-02-19T07:04:18.037Z,101690.44
2023-02-19T07:05:09.801Z,101689.69
2023-02-19T07:06:01.286Z,101691.38
2023-02-19T07:06:52.701Z,101695.75
2023-02-19T07:07:46.239Z,101692.06
2023-02-19T07:08:37.969Z,101698.16
2023-02-19T07:09:29.447Z,101689.44
2023-02-19T07:10:20.889Z,101698.78
2023-02-19T07:11:12.516Z,101706.91
2023-02-19T07:12:04.530Z,101707.09
2023-02-19T07:12:55.951Z,101708.81
2023-02-19T07:13:47.662Z,101710.38
2023-02-19T07:14:39.100Z,101719.19
2023-02-19T07:15:30.532Z,101710.25
2023-02-19T07:16:22.702Z,101716.41
2023-02-19T07:17:14.218Z,101718.13
2023-02-19T07:18:10.109Z,101720.75
2023-02-19T07:19:01.973Z,101725.00
2023-02-19T07:19:53.370Z,101713.88
2023-02-19T07:20:44.881Z,101725.00
2023-02-19T07:21:37.726Z,101728.56
2023-02-19T07:22:29.230Z,101725.00
2023-02-19T07:23:21.565Z,101727.56
2023-02-19T07:24:13.102Z,101737.00
2023-02-19T07:25:04.672Z,101726.53
2023-02-19T07:25:56.321Z,101722.22
2023-02-19T07:26:47.809Z,101732.63
2023-02-19T07:27:40.082Z,101733.44
2023-02-19T07:28:31.605Z,101734.25
2023-02-19T07:29:23.361Z,101742.19
2023-02-19T07:30:14.809Z,101740.66
2023-02-19T07:31:06.441Z,101731.38
2023-02-19T07:31:58.153Z,101737.38
2023-02-19T07:32:49.582Z,101738.22
2023-02-19T07:33:44.168Z,101732.94
2023-02-19T07:34:35.617Z,101736.47
2023-02-19T07:35:27.549Z,101741.69
2023-02-19T07:36:20.467Z,101744.22
2023-02-19T07:37:12.122Z,101744.22
2023-02-19T07:38:03.955Z,101749.41
2023-02-19T07:38:59.968Z,101751.94
2023-02-19T07:39:51.381Z,101756.31
2023-02-19T07:40:42.967Z,101749.53
2023-02-19T07:41:34.835Z,101755.69
2023-02-19T07:42:26.906Z,101757.59
2023-02-19T07:43:19.315Z,101763.69
2023-02-19T07:44:13.448Z,101750.72
2023-02-19T07:45:05.378Z,101769.16
2023-02-19T07:45:56.905Z,101770.94
2023-02-19T07:46:48.605Z,101771.94
2023-02-19T07:47:40.223Z,101771.06
2023-02-19T07:48:31.878Z,101776.00
2023-02-19T07:49:23.357Z,101767.13
2023-02-19T07:50:15.180Z,101774.97
2023-02-19T07:51:11.447Z,101777.97
2023-02-19T07:52:03.188Z,101781.72
2023-02-19T07:52:54.577Z,101772.94
2023-02-19T07:53:47.353Z,101777.97
2023-02-19T07:54:38.880Z,101774.22
2023-02-19T07:55:32.937Z,101773.31
2023-02-19T07:56:24.479Z,101768.34
2023-02-19T07:57:16.073Z,101773.13
2023-02-19T07:58:07.983Z,101777.50
2023-02-19T07:59:00.348Z,101778.38
2023-02-19T07:59:51.844Z,101779.19
2023-02-19T08:00:43.917Z,101780.09
2023-02-19T08:01:53.881Z,101781.56
2023-02-19T08:03:01.759Z,101789.25
2023-02-19T08:03:53.366Z,101792.63
2023-02-19T08:04:47.528Z,101793.41
2023-02-19T08:05:41.747Z,101800.19
2023-02-19T08:06:33.248Z,101800.88
2023-02-19T08:07:24.892Z,101798.03
2023-02-19T08:08:16.942Z,101797.22
2023-02-19T08:09:09.244Z,101799.81
2023-02-19T08:10:27.583Z,101798.88
2023-02-19T08:11:37.674Z,101805.00
2023-02-19T08:12:48.371Z,101815.53
2023-02-19T08:13:40.098Z,101812.88
2023-02-19T08:14:32.000Z,101802.56
2023-02-19T08:15:23.399Z,101805.09
2023-02-19T08:16:26.667Z,101805.09
2023-02-19T08:17:24.988Z,101805.91
2023-02-19T08:18:19.125Z,101801.41
2023-02-19T08:19:13.551Z,101808.28
2023-02-19T08:20:09.402Z,101808.28
2023-02-19T08:21:01.465Z,101804.66
2023-02-19T08:21:53.475Z,101825.47
2023-02-19T08:22:44.980Z,101820.38
2023-02-19T08:23:36.717Z,101824.75
2023-02-19T08:24:28.390Z,101820.53
2023-02-19T08:25:19.848Z,101822.44
2023-02-19T08:26:11.492Z,101821.91
2023-02-19T08:27:02.971Z,101826.19
2023-02-19T08:27:54.437Z,101827.97
2023-02-19T08:28:46.249Z,101835.03
2023-02-19T08:29:37.976Z,101825.78
2023-02-19T08:30:31.049Z,101825.03
2023-02-19T08:31:22.655Z,101828.50
2023-02-19T08:32:14.431Z,101827.84
2023-02-19T08:33:07.755Z,101835.75
2023-02-19T08:33:59.285Z,101838.56
2023-02-19T08:34:50.738Z,101842.28
2023-02-19T08:35:43.003Z,101834.63
2023-02-19T08:36:34.448Z,101829.84
2023-02-19T08:37:25.878Z,101840.38
2023-02-19T08:38:17.423Z,101834.66
2023-02-19T08:39:08.857Z,101839.16
2023-02-19T08:40:00.262Z,101834.97
2023-02-19T08:40:51.871Z,101835.88
2023-02-19T08:41:43.578Z,101841.13
2023-02-19T08:42:34.983Z,101841.25
2023-02-19T08:43:26.436Z,101836.88
2023-02-19T08:44:17.999Z,101850.09
2023-02-19T08:45:10.122Z,101840.53
2023-02-19T08:46:02.192Z,101846.59
2023-02-19T08:46:53.611Z,101845.84
2023-02-19T08:47:45.677Z,101844.19
2023-02-19T08:48:38.959Z,101847.88
2023-02-19T08:49:30.627Z,101844.41
2023-02-19T08:50:22.322Z,101847.03
2023-02-19T08:51:14.614Z,101848.72
2023-02-19T08:52:06.245Z,101843.50
2023-02-19T08:52:59.902Z,101847.97
2023-02-19T08:53:51.362Z,101844.41
2023-02-19T08:54:42.840Z,101844.41
2023-02-19T08:55:36.336Z,101847.03
2023-02-19T08:56:27.803Z,101840.19
2023-02-19T08:57:19.562Z,101847.19
2023-02-19T08:58:11.272Z,101856.72
2023-02-19T08:59:02.965Z,101848.78
2023-02-19T08:59:57.548Z,101857.59
2023-02-19T09:00:49.134Z,101857.94
2023-02-19T09:01:40.863Z,101852.75
2023-02-19T09:02:32.742Z,101860.72
2023-02-19T09:03:24.350Z,101856.28
2023-02-19T09:04:15.914Z,101851.09
2023-02-19T09:05:07.773Z,101857.16
2023-02-19T09:05:59.505Z,101859.16
2023-02-19T09:06:51.010Z,101865.91
2023-02-19T09:07:43.424Z,101864.34
2023-02-19T09:08:35.084Z,101868.72
2023-02-19T09:09:26.531Z,101864.44
2023-02-19T09:10:18.132Z,101861.31
2023-02-19T09:11:10.222Z,101864.81
2023-02-19T09:12:02.066Z,101865.66
2023-02-19T09:12:53.481Z,101860.44
2023-02-19T09:13:45.214Z,101869.06
2023-02-19T09:14:37.317Z,101864.81
2023-02-19T09:15:29.589Z,101865.56
2023-02-19T09:16:21.325Z,101862.91
2023-02-19T09:17:13.109Z,101866.59
2023-02-19T09:18:04.915Z,101867.56
2023-02-19T09:18:56.395Z,101872.88
2023-02-19T09:19:50.067Z,101873.00
2023-02-19T09:20:42.482Z,101872.31
2023-02-19T09:21:33.947Z,101873.22
2023-02-19T09:22:25.447Z,101875.03
2023-02-19T09:23:16.961Z,101866.41
2023-02-19T09:24:10.023Z,101874.22
2023-02-19T09:25:01.497Z,101872.66
2023-02-19T09:26:01.320Z,101876.25
2023-02-19T09:26:54.303Z,101873.59
2023-02-19T09:27:45.980Z,101874.69
2023-02-19T09:28:41.418Z,101880.84
2023-02-19T09:29:34.416Z,101876.59
2023-02-19T09:30:26.015Z,101883.44
2023-02-19T09:31:17.845Z,101878.56
2023-02-19T09:32:09.703Z,101876.72
2023-02-19T09:33:01.115Z,101876.34
2023-02-19T09:33:52.579Z,101878.09
2023-02-19T09:34:44.111Z,101878.09
2023-02-19T09:35:39.308Z,101878.94
2023-02-19T09:36:32.066Z,101890.22
2023-02-19T09:37:27.603Z,101890.06
2023-02-19T09:38:19.056Z,101892.81
2023-02-19T09:39:13.286Z,101889.34
2023-02-19T09:40:04.966Z,101884.13
2023-02-19T09:40:58.886Z,101885.81
2023-02-19T09:42:12.748Z,101895.97
2023-02-19T09:43:18.663Z,101897.00
2023-02-19T09:44:20.874Z,101897.13
2023-02-19T09:45:22.534Z,101892.88
2023-02-19T09:46:33.159Z,101900.81
2023-02-19T09:47:28.502Z,101891.09
2023-02-19T09:48:19.982Z,101899.91
2023-02-19T09:49:18.268Z,101899.78
2023-02-19T09:50:16.304Z,101900.00
2023-02-19T09:51:12.531Z,101900.81
2023-02-19T09:52:18.254Z,101906.28
2023-02-19T09:53:19.379Z,101908.78
2023-02-19T09:54:22.554Z,101914.16
2023-02-19T09:55:23.801Z,101912.31
2023-02-19T09:56:16.898Z,101910.78
2023-02-19T09:57:21.612Z,101912.75
2023-02-19T09:58:29.946Z,101901.44
2023-02-19T09:59:26.818Z,101907.44
2023-02-19T10:00:25.947Z,101910.97
2023-02-19T10:01:18.902Z,101910.16
2023-02-19T10:02:17.334Z,101911.72
2023-02-19T10:03:23.340Z,101908.38
2023-02-19T10:04:14.881Z,101911.09
2023-02-19T10:05:15.376Z,101918.91
2023-02-19T10:06:29.672Z,101912.69
2023-02-19T10:07:25.604Z,101921.88
2023-02-19T10:08:19.988Z,101912.19
2023-02-19T10:09:26.948Z,101921.63
2023-02-19T10:10:29.526Z,101920.28
2023-02-19T10:11:25.927Z,101932.25
2023-02-19T10:12:28.115Z,101919.59
2023-02-19T10:13:43.988Z,101917.22
2023-02-19T10:14:41.934Z,101917.34
2023-02-19T10:15:41.572Z,101919.47
2023-02-19T10:16:34.052Z,101926.13
2023-02-19T10:17:30.800Z,101933.19
2023-02-19T10:18:30.233Z,101927.28
2023-02-19T10:19:21.743Z,101931.72
2023-02-19T10:20:19.104Z,101934.31
2023-02-19T10:21:17.129Z,101946.47
2023-02-19T10:22:12.924Z,101939.25
2023-02-19T10:23:07.782Z,101952.84
2023-02-19T10:24:04.734Z,101952.63
2023-02-19T10:24:58.308Z,101948.69
2023-02-19T10:25:54.718Z,101956.44
2023-02-19T10:26:46.826Z,101956.25
2023-02-19T10:27:38.450Z,101962.84
2023-02-19T10:28:33.790Z,101963.66
2023-02-19T10:29:27.421Z,101977.50
2023-02-19T10:30:23.863Z,101976.75
2023-02-19T10:31:21.690Z,101975.44
2023-02-19T10:32:17.363Z,101982.97
2023-02-19T10:33:14.888Z,101981.09
2023-02-19T10:34:22.439Z,101980.50
2023-02-19T10:35:16.389Z,101978.88
2023-02-19T10:36:26.437Z,101978.13
2023-02-19T10:37:19.366Z,101971.00